Altmar, New York
Current Conditions -  °F | °C
As of 1:54 PM on Monday 20 Oct 2014 (Local Time) from KFZY Reporting Station
Overcast Overcast  
Wind Chill: 12°   Ceiling: 7500
Heat Index: 12°   Visibility: 10mi
Dew Point:   Wind: 10mph
Humidity: 57%   Direction: 210°SSW
Pressure: 29.88"   Gusts: NA
Location:  43.51°N, 76°W
Report Text: KFZY 201754Z AUTO 21009KT 10SM OVC075 12/03 A2988 RMK AO2 SLP122 T01170033 10117 20056 58023
Loading
Personal Weather Stations






























Interactive Weather Map
Tropical Storm Tracking
New forecast layout! Learn more

10-Day Weather Forecast

Advertisements
Track Severe Weather on mobile